createdAt,value
2024-03-16T00:00:29.331Z,12.14
2024-03-16T00:01:29.618Z,12.14
2024-03-16T00:02:29.562Z,12.15
2024-03-16T00:03:29.359Z,12.14
2024-03-16T00:04:29.232Z,12.14
2024-03-16T00:05:29.486Z,12.13
2024-03-16T00:06:29.278Z,12.12
2024-03-16T00:07:29.952Z,12.11
2024-03-16T00:08:29.490Z,12.10
2024-03-16T00:09:29.258Z,12.10
2024-03-16T00:10:29.485Z,12.09
2024-03-16T00:11:29.180Z,12.09
2024-03-16T00:12:29.181Z,12.08
2024-03-16T00:13:29.147Z,12.07
2024-03-16T00:14:29.165Z,12.06
2024-03-16T00:15:29.132Z,12.05
2024-03-16T00:16:29.416Z,12.03
2024-03-16T00:17:29.161Z,12.03
2024-03-16T00:18:29.208Z,12.02
2024-03-16T00:19:29.112Z,12.01
2024-03-16T00:20:29.174Z,12.00
2024-03-16T00:21:29.092Z,11.99
2024-03-16T00:22:29.323Z,11.99
2024-03-16T00:23:29.324Z,11.99
2024-03-16T00:24:29.116Z,11.98
2024-03-16T00:25:29.030Z,11.97
2024-03-16T00:26:29.120Z,11.97
2024-03-16T00:27:29.040Z,11.96
2024-03-16T00:28:28.992Z,11.95
2024-03-16T00:29:28.961Z,11.95
2024-03-16T00:30:29.075Z,11.95
2024-03-16T00:31:28.985Z,11.95
2024-03-16T00:32:29.052Z,11.94
2024-03-16T00:33:28.934Z,11.94
2024-03-16T00:34:28.976Z,11.94
2024-03-16T00:35:28.903Z,11.94
2024-03-16T00:36:28.989Z,11.94
2024-03-16T00:37:28.878Z,11.93
2024-03-16T00:38:28.860Z,11.92
2024-03-16T00:39:29.101Z,11.91
2024-03-16T00:40:28.855Z,11.90
2024-03-16T00:41:28.870Z,11.89
2024-03-16T00:42:28.844Z,11.88
2024-03-16T00:43:28.812Z,11.86
2024-03-16T00:44:28.812Z,11.85
2024-03-16T00:45:28.812Z,11.84
2024-03-16T00:46:28.831Z,11.83
2024-03-16T00:47:28.799Z,11.82
2024-03-16T00:48:28.788Z,11.82
2024-03-16T00:49:28.747Z,11.81
2024-03-16T00:50:28.742Z,11.82
2024-03-16T00:51:28.748Z,11.82
2024-03-16T00:52:28.709Z,11.82
2024-03-16T00:53:28.838Z,11.82
2024-03-16T00:54:28.838Z,11.82
2024-03-16T00:55:28.675Z,11.82
2024-03-16T00:56:28.702Z,11.82
2024-03-16T00:57:28.714Z,11.82
2024-03-16T00:58:28.693Z,11.81
2024-03-16T00:59:28.635Z,11.80
2024-03-16T01:00:28.666Z,11.79
2024-03-16T01:01:28.711Z,11.78
2024-03-16T01:02:28.661Z,11.78
2024-03-16T01:03:28.655Z,11.78
2024-03-16T01:04:28.670Z,11.78
2024-03-16T01:05:28.582Z,11.78
2024-03-16T01:06:28.605Z,11.77
2024-03-16T01:07:28.569Z,11.76
2024-03-16T01:08:28.791Z,11.76
2024-03-16T01:09:28.536Z,11.76
2024-03-16T01:10:28.553Z,11.77
2024-03-16T01:11:28.596Z,11.77
2024-03-16T01:12:28.550Z,11.77
2024-03-16T01:13:28.492Z,11.78
2024-03-16T01:14:28.492Z,11.78
2024-03-16T01:15:28.480Z,11.79
2024-03-16T01:16:28.515Z,11.79
2024-03-16T01:17:28.611Z,11.79
2024-03-16T01:18:28.454Z,11.78
2024-03-16T01:19:28.480Z,11.77
2024-03-16T01:20:28.410Z,11.76
2024-03-16T01:21:28.427Z,11.74
2024-03-16T01:22:28.400Z,11.72
2024-03-16T01:23:28.413Z,11.70
2024-03-16T01:24:28.402Z,11.69
2024-03-16T01:25:28.359Z,11.68
2024-03-16T01:26:28.408Z,11.67
2024-03-16T01:27:28.400Z,11.66
2024-03-16T01:28:28.328Z,11.67
2024-03-16T01:29:28.340Z,11.67
2024-03-16T01:30:28.314Z,11.68
2024-03-16T01:31:28.352Z,11.68
2024-03-16T01:32:28.352Z,11.69
2024-03-16T01:33:28.352Z,11.70
2024-03-16T01:34:28.277Z,11.70
2024-03-16T01:35:28.263Z,11.70
2024-03-16T01:36:28.332Z,11.69
2024-03-16T01:37:28.295Z,11.69
2024-03-16T01:38:28.295Z,11.69
2024-03-16T01:39:28.216Z,11.69
2024-03-16T01:40:28.209Z,11.70
2024-03-16T01:41:28.209Z,11.70
2024-03-16T01:42:28.233Z,11.70
2024-03-16T01:43:28.161Z,11.71
2024-03-16T01:44:28.176Z,11.71
2024-03-16T01:45:28.214Z,11.72
2024-03-16T01:46:28.231Z,11.73
2024-03-16T01:47:28.239Z,11.73
2024-03-16T01:48:28.217Z,11.74
2024-03-16T01:49:28.114Z,11.74
2024-03-16T01:50:28.141Z,11.74
2024-03-16T01:51:28.118Z,11.72
2024-03-16T01:52:28.117Z,11.70
2024-03-16T01:53:28.128Z,11.67
2024-03-16T01:54:28.065Z,11.64
2024-03-16T01:55:28.034Z,11.62
2024-03-16T01:56:28.040Z,11.61
2024-03-16T01:57:28.081Z,11.60
2024-03-16T01:58:28.097Z,11.58
2024-03-16T01:59:27.990Z,11.56
2024-03-16T02:00:28.035Z,11.54
2024-03-16T02:01:28.022Z,11.52
2024-03-16T02:02:27.963Z,11.51
2024-03-16T02:03:28.039Z,11.50
2024-03-16T02:04:27.944Z,11.50
2024-03-16T02:05:27.935Z,11.50
2024-03-16T02:06:27.977Z,11.50
2024-03-16T02:07:27.921Z,11.50
2024-03-16T02:08:27.905Z,11.50
2024-03-16T02:09:27.956Z,11.50
2024-03-16T02:10:27.881Z,11.50
2024-03-16T02:11:27.948Z,11.51
2024-03-16T02:12:27.913Z,11.51
2024-03-16T02:13:27.832Z,11.51
2024-03-16T02:14:27.860Z,11.52
2024-03-16T02:15:27.882Z,11.53
2024-03-16T02:16:27.796Z,11.53
2024-03-16T02:17:27.916Z,11.53
2024-03-16T02:18:27.863Z,11.54
2024-03-16T02:19:27.767Z,11.54
2024-03-16T02:20:27.870Z,11.54
2024-03-16T02:21:27.774Z,11.55
2024-03-16T02:22:27.762Z,11.55
2024-03-16T02:23:27.752Z,11.55
2024-03-16T02:24:27.751Z,11.54
2024-03-16T02:25:27.759Z,11.54
2024-03-16T02:26:27.706Z,11.54
2024-03-16T02:27:27.708Z,11.54
2024-03-16T02:28:27.680Z,11.55
2024-03-16T02:29:27.679Z,11.56
2024-03-16T02:30:27.725Z,11.56
2024-03-16T02:31:27.668Z,11.56
2024-03-16T02:32:27.628Z,11.57
2024-03-16T02:33:27.637Z,11.57
2024-03-16T02:34:27.636Z,11.58
2024-03-16T02:35:27.657Z,11.58
2024-03-16T02:36:27.616Z,11.59
2024-03-16T02:37:27.577Z,11.59
2024-03-16T02:38:27.564Z,11.58
2024-03-16T02:39:27.617Z,11.57
2024-03-16T02:40:27.559Z,11.56
2024-03-16T02:41:27.576Z,11.55
2024-03-16T02:42:27.540Z,11.55
2024-03-16T02:43:27.536Z,11.54
2024-03-16T02:44:27.512Z,11.53
2024-03-16T02:45:27.564Z,11.53
2024-03-16T02:46:27.490Z,11.52
2024-03-16T02:47:27.509Z,11.52
2024-03-16T02:48:27.766Z,11.52
2024-03-16T02:49:27.461Z,11.51
2024-03-16T02:50:27.482Z,11.51
2024-03-16T02:51:27.490Z,11.50
2024-03-16T02:52:27.408Z,11.49
2024-03-16T02:53:27.446Z,11.48
2024-03-16T02:54:27.452Z,11.47
2024-03-16T02:55:27.406Z,11.46
2024-03-16T02:56:27.384Z,11.45
2024-03-16T02:57:27.411Z,11.43
2024-03-16T02:58:27.373Z,11.42
2024-03-16T02:59:27.342Z,11.41
2024-03-16T03:00:27.376Z,11.41
2024-03-16T03:01:27.418Z,11.41
2024-03-16T03:02:27.299Z,11.40
2024-03-16T03:03:27.345Z,11.39
2024-03-16T03:04:27.335Z,11.39
2024-03-16T03:05:27.328Z,11.37
2024-03-16T03:06:27.293Z,11.36
2024-03-16T03:07:27.254Z,11.34
2024-03-16T03:08:27.237Z,11.33
2024-03-16T03:09:27.531Z,11.31
2024-03-16T03:10:27.237Z,11.31
2024-03-16T03:11:27.278Z,11.30
2024-03-16T03:12:27.202Z,11.30
2024-03-16T03:13:27.190Z,11.30
2024-03-16T03:14:27.193Z,11.29
2024-03-16T03:15:27.182Z,11.29
2024-03-16T03:16:27.162Z,11.29
2024-03-16T03:17:27.129Z,11.29
2024-03-16T03:18:27.173Z,11.28
2024-03-16T03:19:27.149Z,11.28
2024-03-16T03:20:27.101Z,11.27
2024-03-16T03:21:27.110Z,11.27
2024-03-16T03:22:27.294Z,11.26
2024-03-16T03:23:27.230Z,11.25
2024-03-16T03:24:27.204Z,11.23
2024-03-16T03:25:27.107Z,11.21
2024-03-16T03:26:27.118Z,11.19
2024-03-16T03:27:27.045Z,11.18
2024-03-16T03:28:27.114Z,11.17
2024-03-16T03:29:27.132Z,11.16
2024-03-16T03:30:27.177Z,11.15
2024-03-16T03:31:27.011Z,11.14
2024-03-16T03:32:27.029Z,11.13
2024-03-16T03:33:26.998Z,11.13
2024-03-16T03:34:26.968Z,11.12
2024-03-16T03:35:26.971Z,11.11
2024-03-16T03:36:26.964Z,11.10
2024-03-16T03:37:26.934Z,11.09
2024-03-16T03:38:26.927Z,11.08
2024-03-16T03:39:27.005Z,11.07
2024-03-16T03:40:26.949Z,11.07
2024-03-16T03:41:26.887Z,11.05
2024-03-16T03:42:27.074Z,11.03
2024-03-16T03:43:26.869Z,11.01
2024-03-16T03:44:26.858Z,10.99
2024-03-16T03:45:27.027Z,10.97
2024-03-16T03:46:26.824Z,10.95
2024-03-16T03:47:26.848Z,10.92
2024-03-16T03:48:27.033Z,10.90
2024-03-16T03:49:26.819Z,10.89
2024-03-16T03:50:26.809Z,10.87
2024-03-16T03:51:26.813Z,10.86
2024-03-16T03:52:26.817Z,10.84
2024-03-16T03:53:34.257Z,10.83
2024-03-16T03:54:26.777Z,10.81
2024-03-16T03:55:26.749Z,10.80
2024-03-16T03:56:26.739Z,10.79
2024-03-16T03:57:26.732Z,10.77
2024-03-16T03:58:26.744Z,10.75
2024-03-16T03:59:26.699Z,10.73
2024-03-16T04:00:26.756Z,10.71
2024-03-16T04:01:26.737Z,10.69
2024-03-16T04:02:26.669Z,10.68
2024-03-16T04:03:26.685Z,10.66
2024-03-16T04:04:26.642Z,10.64
2024-03-16T04:05:26.641Z,10.63
2024-03-16T04:06:26.645Z,10.62
2024-03-16T04:07:26.597Z,10.61
2024-03-16T04:08:26.650Z,10.59
2024-03-16T04:09:26.628Z,10.58
2024-03-16T04:10:26.636Z,10.57
2024-03-16T04:11:26.587Z,10.56
2024-03-16T04:12:26.555Z,10.55
2024-03-16T04:13:26.539Z,10.54
2024-03-16T04:14:26.536Z,10.53
2024-03-16T04:15:26.556Z,10.52
2024-03-16T04:16:26.515Z,10.50
2024-03-16T04:17:26.510Z,10.49
2024-03-16T04:18:26.518Z,10.48
2024-03-16T04:19:26.486Z,10.47
2024-03-16T04:20:26.633Z,10.46
2024-03-16T04:21:26.568Z,10.45
2024-03-16T04:22:26.452Z,10.44
2024-03-16T04:23:26.492Z,10.44
2024-03-16T04:24:26.463Z,10.44
2024-03-16T04:25:26.419Z,10.43
2024-03-16T04:26:26.752Z,10.43
2024-03-16T04:27:26.446Z,10.41
2024-03-16T04:28:26.450Z,10.39
2024-03-16T04:29:26.362Z,10.37
2024-03-16T04:30:26.636Z,10.34
2024-03-16T04:31:26.370Z,10.31
2024-03-16T04:32:26.492Z,10.28
2024-03-16T04:33:26.455Z,10.26
2024-03-16T04:34:26.328Z,10.24
2024-03-16T04:35:26.351Z,10.22
2024-03-16T04:36:26.464Z,10.20
2024-03-16T04:37:26.335Z,10.18
2024-03-16T04:38:26.343Z,10.17
2024-03-16T04:39:26.346Z,10.16
2024-03-16T04:40:26.378Z,10.15
2024-03-16T04:41:26.295Z,10.15
2024-03-16T04:42:26.507Z,10.15
2024-03-16T04:43:26.269Z,10.16
2024-03-16T04:44:26.220Z,10.16
2024-03-16T04:45:26.304Z,10.17
2024-03-16T04:46:26.205Z,10.17
2024-03-16T04:47:26.182Z,10.18
2024-03-16T04:48:26.366Z,10.19
2024-03-16T04:49:26.163Z,10.20
2024-03-16T04:50:26.155Z,10.21
2024-03-16T04:51:26.323Z,10.23
2024-03-16T04:52:26.119Z,10.24
2024-03-16T04:53:26.116Z,10.26
2024-03-16T04:54:26.154Z,10.27
2024-03-16T04:55:26.117Z,10.28
2024-03-16T04:56:26.112Z,10.29
2024-03-16T04:57:26.096Z,10.30
2024-03-16T04:58:26.082Z,10.32
2024-03-16T04:59:26.049Z,10.34
2024-03-16T05:00:26.156Z,10.36
2024-03-16T05:01:26.089Z,10.38
2024-03-16T05:02:26.018Z,10.40
2024-03-16T05:03:26.009Z,10.42
2024-03-16T05:04:25.989Z,10.44
2024-03-16T05:05:25.997Z,10.46
2024-03-16T05:06:25.980Z,10.47
2024-03-16T05:07:25.951Z,10.48
2024-03-16T05:08:25.933Z,10.50
2024-03-16T05:09:25.931Z,10.50
2024-03-16T05:10:26.159Z,10.51
2024-03-16T05:11:25.988Z,10.52
2024-03-16T05:12:25.918Z,10.53
2024-03-16T05:13:25.892Z,10.54
2024-03-16T05:14:25.889Z,10.55
2024-03-16T05:15:25.899Z,10.56
2024-03-16T05:16:25.871Z,10.57
2024-03-16T05:17:25.866Z,10.58
2024-03-16T05:18:25.833Z,10.59
2024-03-16T05:19:25.887Z,10.60
2024-03-16T05:20:25.815Z,10.60
2024-03-16T05:21:25.820Z,10.60
2024-03-16T05:22:25.818Z,10.59
2024-03-16T05:23:25.809Z,10.59
2024-03-16T05:24:25.826Z,10.59
2024-03-16T05:25:25.745Z,10.59
2024-03-16T05:26:25.763Z,10.59
2024-03-16T05:27:25.752Z,10.59
2024-03-16T05:28:27.716Z,10.59
2024-03-16T05:29:25.703Z,10.59
2024-03-16T05:30:25.685Z,10.60
2024-03-16T05:31:25.712Z,10.59
2024-03-16T05:32:25.773Z,10.59
2024-03-16T05:33:25.682Z,10.60
2024-03-16T05:34:25.692Z,10.60
2024-03-16T05:35:25.663Z,10.60
2024-03-16T05:36:25.665Z,10.60
2024-03-16T05:37:27.951Z,10.60
2024-03-16T05:38:25.625Z,10.60
2024-03-16T05:39:25.618Z,10.61
2024-03-16T05:40:25.655Z,10.60
2024-03-16T05:41:25.602Z,10.60
2024-03-16T05:42:25.578Z,10.61
2024-03-16T05:43:25.598Z,10.61
2024-03-16T05:44:25.564Z,10.61
2024-03-16T05:45:25.548Z,10.62
2024-03-16T05:46:25.546Z,10.62
2024-03-16T05:47:25.574Z,10.62
2024-03-16T05:48:25.506Z,10.63
2024-03-16T05:49:27.855Z,10.63
2024-03-16T05:50:25.498Z,10.63
2024-03-16T05:51:25.502Z,10.64
2024-03-16T05:52:25.491Z,10.64
2024-03-16T05:53:25.475Z,10.64
2024-03-16T05:54:25.461Z,10.64
2024-03-16T05:55:25.443Z,10.64
2024-03-16T05:56:25.443Z,10.65
2024-03-16T05:57:25.414Z,10.65
2024-03-16T05:58:25.408Z,10.65
2024-03-16T05:59:25.390Z,10.65
2024-03-16T06:00:25.389Z,10.66
2024-03-16T06:01:26.155Z,10.66
2024-03-16T06:02:25.370Z,10.66
2024-03-16T06:03:25.377Z,10.67
2024-03-16T06:04:25.337Z,10.68
2024-03-16T06:05:25.338Z,10.68
2024-03-16T06:06:25.330Z,10.69
2024-03-16T06:07:25.335Z,10.69
2024-03-16T06:08:25.335Z,10.69
2024-03-16T06:09:25.298Z,10.69
2024-03-16T06:10:25.358Z,10.69
2024-03-16T06:11:25.337Z,10.69
2024-03-16T06:12:25.287Z,10.70
2024-03-16T06:13:25.271Z,10.70
2024-03-16T06:14:25.252Z,10.71
2024-03-16T06:15:25.228Z,10.71
2024-03-16T06:16:25.208Z,10.72
2024-03-16T06:17:25.257Z,10.72
2024-03-16T06:18:25.182Z,10.73
2024-03-16T06:19:25.168Z,10.73
2024-03-16T06:20:25.442Z,10.73
2024-03-16T06:21:25.155Z,10.73
2024-03-16T06:22:25.151Z,10.73
2024-03-16T06:23:25.168Z,10.74
2024-03-16T06:24:25.144Z,10.74
2024-03-16T06:25:25.133Z,10.75
2024-03-16T06:26:25.119Z,10.76
2024-03-16T06:27:25.089Z,10.76
2024-03-16T06:28:25.095Z,10.77
2024-03-16T06:29:25.096Z,10.77
2024-03-16T06:30:25.151Z,10.78
2024-03-16T06:31:25.101Z,10.79
2024-03-16T06:32:25.065Z,10.80
2024-03-16T06:33:25.090Z,10.81
2024-03-16T06:34:25.037Z,10.82
2024-03-16T06:35:25.040Z,10.83
2024-03-16T06:36:25.030Z,10.84
2024-03-16T06:37:25.024Z,10.84
2024-03-16T06:38:24.967Z,10.85
2024-03-16T06:39:25.090Z,10.85
2024-03-16T06:40:24.983Z,10.86
2024-03-16T06:41:24.950Z,10.86
2024-03-16T06:42:24.908Z,10.87
2024-03-16T06:43:24.930Z,10.88
2024-03-16T06:44:24.919Z,10.89
2024-03-16T06:45:24.890Z,10.90
2024-03-16T06:46:24.885Z,10.91
2024-03-16T06:47:25.010Z,10.92
2024-03-16T06:48:24.875Z,10.93
2024-03-16T06:49:24.881Z,10.93
2024-03-16T06:50:24.841Z,10.94
2024-03-16T06:51:24.869Z,10.94
2024-03-16T06:52:24.810Z,10.95
2024-03-16T06:53:24.856Z,10.95
2024-03-16T06:54:24.791Z,10.96
2024-03-16T06:55:24.830Z,10.97
2024-03-16T06:56:24.805Z,10.98
2024-03-16T06:57:24.756Z,10.98
2024-03-16T06:58:24.800Z,10.99
2024-03-16T06:59:24.761Z,11.00
2024-03-16T07:00:24.739Z,11.01
2024-03-16T07:01:26.757Z,11.02
2024-03-16T07:02:26.551Z,11.04
2024-03-16T07:03:26.216Z,11.05
2024-03-16T07:04:25.852Z,11.06
2024-03-16T07:05:25.734Z,11.08
2024-03-16T07:06:25.656Z,11.09
2024-03-16T07:07:25.545Z,11.10
2024-03-16T07:08:25.912Z,11.11
2024-03-16T07:09:24.638Z,11.12
2024-03-16T07:10:24.685Z,11.13
2024-03-16T07:11:24.677Z,11.14
2024-03-16T07:12:24.643Z,11.15
2024-03-16T07:13:24.585Z,11.16
2024-03-16T07:14:24.597Z,11.16
2024-03-16T07:15:24.577Z,11.17
2024-03-16T07:16:24.656Z,11.17
2024-03-16T07:17:24.540Z,11.17
2024-03-16T07:18:24.528Z,11.17
2024-03-16T07:19:24.642Z,11.17
2024-03-16T07:20:24.564Z,11.17
2024-03-16T07:21:26.503Z,11.17
2024-03-16T07:22:24.521Z,11.18
2024-03-16T07:23:24.477Z,11.18
2024-03-16T07:24:24.484Z,11.19
2024-03-16T07:25:24.534Z,11.20
2024-03-16T07:26:24.481Z,11.22
2024-03-16T07:27:24.449Z,11.23
2024-03-16T07:28:24.440Z,11.25
2024-03-16T07:29:24.410Z,11.26
2024-03-16T07:30:24.430Z,11.28
2024-03-16T07:31:24.415Z,11.30
2024-03-16T07:32:24.391Z,11.31
2024-03-16T07:33:24.379Z,11.32
2024-03-16T07:34:24.360Z,11.33
2024-03-16T07:35:24.369Z,11.34
2024-03-16T07:36:24.341Z,11.35
2024-03-16T07:37:24.380Z,11.36
2024-03-16T07:38:24.306Z,11.37
2024-03-16T07:39:24.297Z,11.38
2024-03-16T07:40:24.342Z,11.39
2024-03-16T07:41:24.294Z,11.40
2024-03-16T07:42:24.275Z,11.41
2024-03-16T07:43:24.263Z,11.41
2024-03-16T07:44:24.251Z,11.42
2024-03-16T07:45:24.229Z,11.42
2024-03-16T07:46:24.264Z,11.43
2024-03-16T07:47:24.225Z,11.44
2024-03-16T07:48:24.208Z,11.44
2024-03-16T07:49:24.197Z,11.45
2024-03-16T07:50:24.192Z,11.45
2024-03-16T07:51:24.234Z,11.46
2024-03-16T07:52:24.177Z,11.46
2024-03-16T07:53:24.160Z,11.46
2024-03-16T07:54:24.157Z,11.46
2024-03-16T07:55:24.119Z,11.47
2024-03-16T07:56:24.147Z,11.46
2024-03-16T07:57:24.108Z,11.46
2024-03-16T07:58:24.115Z,11.46
2024-03-16T07:59:24.114Z,11.46
2024-03-16T08:00:24.083Z,11.45
2024-03-16T08:01:24.153Z,11.44
2024-03-16T08:02:24.100Z,11.44
2024-03-16T08:03:24.038Z,11.44
2024-03-16T08:04:24.026Z,11.44
2024-03-16T08:05:24.010Z,11.44
2024-03-16T08:06:24.025Z,11.44
2024-03-16T08:07:24.075Z,11.44
2024-03-16T08:08:24.055Z,11.44
2024-03-16T08:09:23.990Z,11.43
2024-03-16T08:10:24.092Z,11.43
2024-03-16T08:11:24.022Z,11.43
2024-03-16T08:12:23.956Z,11.43
2024-03-16T08:13:24.007Z,11.43
2024-03-16T08:14:23.933Z,11.43
2024-03-16T08:15:23.954Z,11.43
2024-03-16T08:16:23.994Z,11.43
2024-03-16T08:17:23.905Z,11.43
2024-03-16T08:18:23.935Z,11.43
2024-03-16T08:19:23.925Z,11.44
2024-03-16T08:20:23.881Z,11.44
2024-03-16T08:21:23.889Z,11.44
2024-03-16T08:22:23.905Z,11.45
2024-03-16T08:23:23.849Z,11.46
2024-03-16T08:24:23.835Z,11.47
2024-03-16T08:25:23.867Z,11.48
2024-03-16T08:26:23.822Z,11.49
2024-03-16T08:27:26.879Z,11.50
2024-03-16T08:28:24.888Z,11.51
2024-03-16T08:29:23.755Z,11.52
2024-03-16T08:30:23.785Z,11.53
2024-03-16T08:31:23.882Z,11.54
2024-03-16T08:32:23.813Z,11.55
2024-03-16T08:33:23.819Z,11.56
2024-03-16T08:34:23.853Z,11.58
2024-03-16T08:35:24.016Z,11.59
2024-03-16T08:36:23.724Z,11.60
2024-03-16T08:37:23.869Z,11.61
2024-03-16T08:38:23.657Z,11.62
2024-03-16T08:39:23.681Z,11.63
2024-03-16T08:40:23.770Z,11.64
2024-03-16T08:41:23.687Z,11.65
2024-03-16T08:42:23.613Z,11.68
2024-03-16T08:43:23.724Z,11.71
2024-03-16T08:44:23.599Z,11.73
2024-03-16T08:45:23.599Z,11.76
2024-03-16T08:46:27.432Z,11.79
2024-03-16T08:47:23.587Z,11.82
2024-03-16T08:48:23.627Z,11.86
2024-03-16T08:49:23.648Z,11.90
2024-03-16T08:50:23.549Z,11.93
2024-03-16T08:51:23.553Z,11.97
2024-03-16T08:52:23.549Z,12.00
2024-03-16T08:53:23.524Z,12.03
2024-03-16T08:54:23.488Z,12.05
2024-03-16T08:55:23.568Z,12.08
2024-03-16T08:56:23.493Z,12.11
2024-03-16T08:57:23.475Z,12.14
2024-03-16T08:58:23.495Z,12.17
2024-03-16T08:59:23.441Z,12.20
2024-03-16T09:00:23.460Z,12.24
2024-03-16T09:01:23.568Z,12.28
2024-03-16T09:02:23.403Z,12.33
2024-03-16T09:03:23.421Z,12.37
2024-03-16T09:04:23.399Z,12.41
2024-03-16T09:05:23.375Z,12.44
2024-03-16T09:06:23.363Z,12.47
2024-03-16T09:07:23.347Z,12.51
2024-03-16T09:08:23.348Z,12.53
2024-03-16T09:09:23.318Z,12.56
2024-03-16T09:10:23.357Z,12.58
2024-03-16T09:11:26.158Z,12.59
2024-03-16T09:12:23.338Z,12.60
2024-03-16T09:13:23.333Z,12.61
2024-03-16T09:14:23.277Z,12.62
2024-03-16T09:15:23.280Z,12.64
2024-03-16T09:16:23.275Z,12.66
2024-03-16T09:17:23.271Z,12.69
2024-03-16T09:18:23.240Z,12.73
2024-03-16T09:19:23.234Z,12.77
2024-03-16T09:20:23.199Z,12.81
2024-03-16T09:21:23.196Z,12.84
2024-03-16T09:22:23.239Z,12.88
2024-03-16T09:23:23.199Z,12.92
2024-03-16T09:24:23.171Z,12.96
2024-03-16T09:25:23.214Z,13.00
2024-03-16T09:26:23.386Z,13.04
2024-03-16T09:27:23.152Z,13.10
2024-03-16T09:28:23.184Z,13.16
2024-03-16T09:29:23.117Z,13.22
2024-03-16T09:30:23.109Z,13.29
2024-03-16T09:31:23.159Z,13.36
2024-03-16T09:32:23.100Z,13.43
2024-03-16T09:33:23.061Z,13.48
2024-03-16T09:34:23.114Z,13.51
2024-03-16T09:35:23.077Z,13.53
2024-03-16T09:36:23.062Z,13.54
2024-03-16T09:37:23.043Z,13.54
2024-03-16T09:38:23.012Z,13.53
2024-03-16T09:39:23.144Z,13.51
2024-03-16T09:40:23.124Z,13.48
2024-03-16T09:41:23.013Z,13.45
2024-03-16T09:42:23.001Z,13.42
2024-03-16T09:43:22.994Z,13.38
2024-03-16T09:44:22.949Z,13.35
2024-03-16T09:45:22.929Z,13.32
2024-03-16T09:46:22.924Z,13.30
2024-03-16T09:47:22.903Z,13.28
2024-03-16T09:48:25.403Z,13.26
2024-03-16T09:49:22.918Z,13.24
2024-03-16T09:50:22.870Z,13.22
2024-03-16T09:51:22.861Z,13.20
2024-03-16T09:52:22.864Z,13.19
2024-03-16T09:53:22.838Z,13.19
2024-03-16T09:54:22.828Z,13.20
2024-03-16T09:55:22.824Z,13.20
2024-03-16T09:56:22.842Z,13.20
2024-03-16T09:57:22.810Z,13.20
2024-03-16T09:58:22.803Z,13.19
2024-03-16T09:59:29.829Z,13.18
2024-03-16T10:00:23.759Z,13.18
2024-03-16T10:01:22.792Z,13.18
2024-03-16T10:02:22.755Z,13.18
2024-03-16T10:03:22.726Z,13.18
2024-03-16T10:04:22.717Z,13.19
2024-03-16T10:05:22.705Z,13.20
2024-03-16T10:06:22.734Z,13.22
2024-03-16T10:07:22.704Z,13.23
2024-03-16T10:08:22.689Z,13.25
2024-03-16T10:09:22.697Z,13.26
2024-03-16T10:10:22.714Z,13.27
2024-03-16T10:11:22.710Z,13.27
2024-03-16T10:12:22.664Z,13.27
2024-03-16T10:13:22.630Z,13.26
2024-03-16T10:14:22.610Z,13.24
2024-03-16T10:15:22.606Z,13.23
2024-03-16T10:16:22.585Z,13.21
2024-03-16T10:17:22.585Z,13.19
2024-03-16T10:18:22.584Z,13.17
2024-03-16T10:19:25.381Z,13.15
2024-03-16T10:20:22.550Z,13.14
2024-03-16T10:21:22.546Z,13.13
2024-03-16T10:22:22.544Z,13.14
2024-03-16T10:23:22.511Z,13.16
2024-03-16T10:24:22.506Z,13.18
2024-03-16T10:25:22.492Z,13.21
2024-03-16T10:26:22.497Z,13.24
2024-03-16T10:27:22.486Z,13.26
2024-03-16T10:28:22.528Z,13.28
2024-03-16T10:29:22.451Z,13.31
2024-03-16T10:30:22.453Z,13.34
2024-03-16T10:31:22.424Z,13.37
2024-03-16T10:32:22.440Z,13.42
2024-03-16T10:33:22.417Z,13.47
2024-03-16T10:34:22.393Z,13.53
2024-03-16T10:35:22.412Z,13.59
2024-03-16T10:36:22.470Z,13.64
2024-03-16T10:37:22.352Z,13.70
2024-03-16T10:38:22.379Z,13.76
2024-03-16T10:39:22.372Z,13.83
2024-03-16T10:40:22.340Z,13.90
2024-03-16T10:41:22.324Z,13.95
2024-03-16T10:42:22.343Z,13.99
2024-03-16T10:43:22.309Z,14.01
2024-03-16T10:44:22.292Z,14.01
2024-03-16T10:45:22.283Z,14.02
2024-03-16T10:46:22.284Z,14.01
2024-03-16T10:47:22.259Z,14.01
2024-03-16T10:48:22.274Z,14.01
2024-03-16T10:49:22.257Z,14.01
2024-03-16T10:50:22.225Z,14.00
2024-03-16T10:51:22.245Z,13.99
2024-03-16T10:52:22.237Z,13.97
2024-03-16T10:53:22.219Z,13.95
2024-03-16T10:54:22.180Z,13.94
2024-03-16T10:55:22.228Z,13.93
2024-03-16T10:56:22.155Z,13.92
2024-03-16T10:57:22.163Z,13.93
2024-03-16T10:58:22.155Z,13.94
2024-03-16T10:59:22.141Z,13.96
2024-03-16T11:00:22.117Z,13.99
2024-03-16T11:01:22.108Z,14.01
2024-03-16T11:02:22.100Z,14.03
2024-03-16T11:03:22.106Z,14.04
2024-03-16T11:04:22.064Z,14.05
2024-03-16T11:05:22.095Z,14.06
2024-03-16T11:06:22.064Z,14.07
2024-03-16T11:07:22.063Z,14.08
2024-03-16T11:08:22.071Z,14.09
2024-03-16T11:09:22.028Z,14.09
2024-03-16T11:10:22.011Z,14.09
2024-03-16T11:11:22.016Z,14.08
2024-03-16T11:12:22.043Z,14.07
2024-03-16T11:13:22.039Z,14.06
2024-03-16T11:14:21.967Z,14.07
2024-03-16T11:15:21.984Z,14.09
2024-03-16T11:16:21.939Z,14.13
2024-03-16T11:17:21.950Z,14.17
2024-03-16T11:18:21.976Z,14.21
2024-03-16T11:19:21.935Z,14.26
2024-03-16T11:20:21.905Z,14.33
2024-03-16T11:21:21.886Z,14.40
2024-03-16T11:22:21.875Z,14.47
2024-03-16T11:23:21.899Z,14.54
2024-03-16T11:24:21.876Z,14.59
2024-03-16T11:25:21.849Z,14.63
2024-03-16T11:26:21.891Z,14.66
2024-03-16T11:27:21.863Z,14.67
2024-03-16T11:28:21.853Z,14.68
2024-03-16T11:29:21.880Z,14.67
2024-03-16T11:30:33.138Z,14.66
2024-03-16T11:31:22.820Z,14.64
2024-03-16T11:32:21.795Z,14.63
2024-03-16T11:33:21.815Z,14.61
2024-03-16T11:34:21.777Z,14.61
2024-03-16T11:35:21.745Z,14.60
2024-03-16T11:36:21.732Z,14.59
2024-03-16T11:37:21.717Z,14.58
2024-03-16T11:38:21.723Z,14.56
2024-03-16T11:39:21.719Z,14.53
2024-03-16T11:40:21.692Z,14.51
2024-03-16T11:41:21.665Z,14.48
2024-03-16T11:42:21.662Z,14.44
2024-03-16T11:43:21.662Z,14.40
2024-03-16T11:44:21.711Z,14.37
2024-03-16T11:45:21.617Z,14.33
2024-03-16T11:46:21.635Z,14.28
2024-03-16T11:47:21.697Z,14.24
2024-03-16T11:48:21.601Z,14.20
2024-03-16T11:49:21.613Z,14.16
2024-03-16T11:50:21.572Z,14.12
2024-03-16T11:51:21.558Z,14.09
2024-03-16T11:52:21.579Z,14.06
2024-03-16T11:53:21.538Z,14.04
2024-03-16T11:54:21.546Z,14.02
2024-03-16T11:55:21.545Z,14.00
2024-03-16T11:56:21.502Z,13.98
2024-03-16T11:57:21.500Z,13.96
2024-03-16T11:58:21.542Z,13.96
2024-03-16T11:59:23.148Z,13.95
2024-03-16T12:00:21.506Z,13.96
2024-03-16T12:01:21.478Z,13.97
2024-03-16T12:02:21.480Z,13.98
2024-03-16T12:03:21.495Z,14.00
2024-03-16T12:04:21.437Z,14.02
2024-03-16T12:05:21.419Z,14.04
2024-03-16T12:06:21.412Z,14.06
2024-03-16T12:07:21.397Z,14.07
2024-03-16T12:08:21.389Z,14.09
2024-03-16T12:09:21.399Z,14.09
2024-03-16T12:10:21.384Z,14.08
2024-03-16T12:11:21.378Z,14.03
2024-03-16T12:12:21.392Z,13.93
2024-03-16T12:13:21.341Z,13.80
2024-03-16T12:14:31.511Z,13.64
2024-03-16T12:15:22.593Z,13.48
2024-03-16T12:16:21.339Z,13.36
2024-03-16T12:17:21.319Z,13.25
2024-03-16T12:18:21.301Z,13.16
2024-03-16T12:19:21.344Z,13.07
2024-03-16T12:20:21.277Z,13.00
2024-03-16T12:21:21.255Z,12.91
2024-03-16T12:22:21.251Z,12.83
2024-03-16T12:23:21.460Z,12.78
2024-03-16T12:24:21.218Z,12.72
2024-03-16T12:25:21.207Z,12.66
2024-03-16T12:26:21.211Z,12.61
2024-03-16T12:27:21.179Z,12.57
2024-03-16T12:28:21.175Z,12.54
2024-03-16T12:29:21.152Z,12.51
2024-03-16T12:30:21.161Z,12.50
2024-03-16T12:31:21.143Z,12.48
2024-03-16T12:32:21.170Z,12.45
2024-03-16T12:33:21.396Z,12.42
2024-03-16T12:34:21.175Z,12.38
2024-03-16T12:35:21.186Z,12.36
2024-03-16T12:36:21.133Z,12.33
2024-03-16T12:37:21.157Z,12.31
2024-03-16T12:38:21.093Z,12.29
2024-03-16T12:39:21.085Z,12.28
2024-03-16T12:40:21.033Z,12.26
2024-03-16T12:41:21.069Z,12.23
2024-03-16T12:42:21.042Z,12.20
2024-03-16T12:43:21.047Z,12.17
2024-03-16T12:44:20.991Z,12.14
2024-03-16T12:45:21.022Z,12.13
2024-03-16T12:46:20.986Z,12.12
2024-03-16T12:47:21.015Z,12.12
2024-03-16T12:48:20.957Z,12.12
2024-03-16T12:49:20.939Z,12.12
2024-03-16T12:50:21.030Z,12.12
2024-03-16T12:51:20.956Z,12.11
2024-03-16T12:52:20.901Z,12.10